Latest Coastal Weather Observations for Brisbane Airport

IDQ60701

Issued at 2:02 am EST Friday 5 March 2021 (issued every 10 minutes, with the page automatically refreshed every 10 minutes)

About coastal observations | Map of coastal stations | Coastal observations for QLD | Marine services | Other Formats
Station Details ID: 040842 Name: BRISBANE AERO Lat: -27.39 Lon: 153.13 Height: 4.51 m
Data from the previous 72 hours. | See also: Recent months at Brisbane Airport
Date/Time
EST
Wind Sea
Height
m
Swell Vis
km
Cloud Weather Temp
°C
Press
MSL
hPa
Rain since
9am
mm
Dir  Spd
kts
Gust
kts
Height
m
Period
s
Dir
05/01:30am SSW 6 7 - - - - 10 Mostly clear - 19.3 1009.4 0.2
05/01:00am SSW 6 7 - - - - 10 Mostly clear - 18.7 1009.6 0.2
05/12:30am S 6 7 - - - - 10 Mostly clear - 19.8 1009.9 0.2
05/12:00am SSW 5 6 - - - - 30 Mostly clear Fine 19.3 1010.1 0.2
 
Date/Time
EST
Wind Sea
Height
m
Swell Vis
km
Cloud Weather Temp
°C
Press
MSL
hPa
Rain since
9am
mm
Dir  Spd
kts
Gust
kts
Height
m
Period
s
Dir
04/11:30pm SSW 4 5 - - - - 10 Mostly clear - 19.3 1010.1 0.2
04/11:00pm ESE 4 5 - - - - 10 Mostly clear - 19.5 1010.5 0.2
04/10:30pm E 5 7 - - - - 10 Mostly clear - 20.7 1010.6 0.2
04/10:00pm E 4 6 - - - - 10 Mostly clear - 22.2 1010.8 0.2
04/09:30pm E 5 8 - - - - 10 Mostly clear - 22.6 1010.8 0.2
04/09:00pm ESE 4 6 - - - - 30 Mostly clear Fine 22.8 1011.0 0.2
04/08:30pm ESE 5 7 - - - - 10 Mostly clear - 22.8 1010.8 0.2
04/08:00pm ESE 6 8 - - - - 10 Mostly clear - 23.1 1010.6 0.2
04/07:30pm ESE 5 8 - - - - 10 Mostly clear - 23.1 1010.5 0.2
04/07:00pm ESE 5 8 - - - - 10 Mostly clear - 23.3 1010.3 0.2
04/06:30pm E 7 10 - - - - 10 Partly cloudy - 23.4 1010.0 0.2
04/06:00pm ESE 6 9 - - - - 30 Mostly clear Fine 23.3 1010.0 0.2
04/05:30pm ESE 7 11 - - - - 10 Mostly clear - 23.8 1010.1 0.2
04/05:00pm SE 7 12 - - - - 10 Mostly clear - 24.3 1010.1 0.2
04/04:30pm ESE 8 15 - - - - 10 Mostly clear - 24.7 1010.1 0.2
04/04:00pm SE 10 15 - - - - 10 Mostly clear - 24.7 1010.1 0.2
04/03:30pm ESE 10 17 - - - - 10 Mostly clear - 25.0 1010.3 0.2
04/03:00pm SE 10 16 - - - - 30 Partly cloudy Showers 24.1 1010.5 0.2
04/02:30pm ESE 9 16 - - - - 10 Partly cloudy - 24.2 1010.7 0.2
04/02:00pm SE 9 14 - - - - 10 Partly cloudy - 24.4 1011.1 0.2
04/01:30pm SE 8 12 - - - - 10 Mostly clear - 24.7 1011.4 0.2
04/01:00pm SE 10 16 - - - - 10 Partly cloudy - 23.9 1011.8 0.2
04/12:30pm SE 10 16 - - - - 10 Mostly clear - 24.1 1012.0 0.2
04/12:00pm SE 9 17 - - - - 30 Cloudy Fine 24.1 1012.1 0.2
04/11:30am SSE 10 18 - - - - 10 Mostly clear - 23.3 1012.4 0.2
04/11:00am SSE 10 16 - - - - 10 Partly cloudy - 22.0 1012.9 0.2
04/10:30am SSE 8 13 - - - - 10 Mostly clear Showers 21.7 1013.0 0.2
04/10:18am SSE 8 15 - - - - 6 Mostly clear Showers 21.2 1013.1 0.0
04/10:00am SSE 9 16 - - - - 10 Mostly clear - 22.0 1013.1 0.0
04/09:30am S 8 15 - - - - 10 Mostly clear Showers 21.8 1013.1 0.0
04/09:00am S 8 12 - - - - 15 Cloudy Distant precip. 21.1 1013.1 2.0
04/08:30am SSE 7 12 - - - - 10 Mostly clear Showers 21.3 1012.7 2.0
04/08:08am SSE 6 10 - - - - 10 Partly cloudy - 20.7 1012.7 2.0
04/08:00am SSE 6 10 - - - - 10 Mostly clear - 20.7 1012.6 2.0
04/07:30am S 5 7 - - - - 10 Mostly clear Showers 20.3 1012.4 2.0
04/07:14am SSE 6 10 - - - - 9 Partly cloudy Showers 20.0 1012.2 2.0
04/07:00am SSE 8 14 - - - - 6 Partly cloudy - 19.9 1012.2 2.0
04/06:48am SSE 9 18 - - - - 6 Mostly clear Showers 20.2 1012.0 1.8
04/06:30am SSE 8 13 - - - - 10 Mostly clear - 20.7 1011.7 1.8
04/06:00am S 7 12 - - - - 25 Mostly cloudy Distant precip. 20.7 1011.3 1.8
04/05:30am SSW 7 13 - - - - 10 Mostly clear - 20.7 1011.0 1.8
04/05:00am S 8 13 - - - - 10 Mostly clear - 20.8 1010.8 1.8
04/04:30am S 6 9 - - - - 10 Mostly clear - 21.1 1010.7 1.8
04/04:00am SSE 7 12 - - - - 10 Mostly clear - 21.1 1010.4 1.8
04/03:30am S 6 9 - - - - 10 Mostly clear - 21.5 1010.2 1.8
04/03:00am SSE 3 6 - - - - 25 Cloudy Fine 21.9 1010.1 1.8
04/02:30am SSW 4 5 - - - - 10 Mostly clear - 21.5 1010.3 1.8
04/02:00am SSW 5 8 - - - - 10 Mostly clear - 21.5 1010.4 1.8
04/01:30am SSW 4 6 - - - - 10 Mostly clear - 21.7 1010.5 1.8
04/01:00am SW 4 5 - - - - 10 Mostly clear - 21.8 1010.7 1.8
04/12:30am ESE 6 9 - - - - 10 Mostly clear - 21.8 1010.8 1.8
04/12:00am ESE 8 12 - - - - 25 Cloudy Fine 24.3 1011.1 1.8
 
Date/Time
EST
Wind Sea
Height
m
Swell Vis
km
Cloud Weather Temp
°C
Press
MSL
hPa
Rain since
9am
mm
Dir  Spd
kts
Gust
kts
Height
m
Period
s
Dir
03/11:30pm E 7 12 - - - - 10 Mostly clear Showers 22.9 1011.4 1.8
03/11:00pm E 9 16 - - - - 10 Mostly clear - 24.4 1011.5 1.8
03/10:30pm E 8 13 - - - - 10 Mostly clear - 24.3 1011.5 1.8
03/10:00pm E 8 15 - - - - 10 Mostly clear - 24.3 1011.6 1.8
03/09:30pm E 9 12 - - - - 10 Mostly clear - 24.3 1011.7 1.8
03/09:00pm ESE 8 14 - - - - 25 Mostly cloudy Fine 24.3 1011.8 1.8
03/08:30pm E 7 14 - - - - 10 Mostly clear - 24.3 1011.3 1.8
03/08:00pm E 7 13 - - - - 10 Mostly clear - 24.3 1011.0 1.8
03/07:30pm ESE 8 15 - - - - 10 Mostly clear - 24.4 1010.9 1.8
03/07:00pm ESE 6 11 - - - - 10 Mostly clear - 24.3 1010.7 1.8
03/06:30pm E 8 12 - - - - 10 Mostly clear - 24.2 1010.4 1.8
03/06:00pm E 7 12 - - - - 25 Mostly cloudy Distant precip. 24.6 1010.3 1.8
03/05:30pm E 9 15 - - - - 10 Mostly clear - 24.3 1010.1 1.8
03/05:00pm E 9 14 - - - - 10 Mostly clear - 24.5 1010.0 1.8
03/04:30pm ESE 10 15 - - - - 10 Mostly clear - 24.5 1010.0 1.8
03/04:00pm ESE 10 17 - - - - 10 Partly cloudy - 25.3 1009.7 1.8
03/03:30pm ESE 11 16 - - - - 10 Partly cloudy - 24.7 1009.8 1.8
03/03:00pm ESE 10 17 - - - - 20 Mostly cloudy Distant precip. 25.7 1010.0 1.8
03/02:30pm ESE 9 17 - - - - 10 Partly cloudy - 25.1 1010.1 1.8
03/02:00pm ESE 8 16 - - - - 10 Partly cloudy - 24.9 1010.7 1.8
03/01:30pm ESE 9 15 - - - - 10 Partly cloudy - 24.6 1011.0 1.8
03/01:00pm SE 8 15 - - - - 10 Mostly clear - 23.6 1011.3 1.8
03/12:30pm SSE 9 15 - - - - 10 Mostly clear Showers 24.1 1011.6 1.6
03/12:00pm SSE 7 15 - - - - 15 Cloudy Recent precip. 23.4 1011.8 1.6
03/11:30am SSE 8 12 - - - - 7 Mostly clear Showers 23.0 1012.0 1.6
03/11:28am SSE 8 16 - - - - 7 Mostly clear Showers 23.0 1012.0 1.6
03/11:05am SE 10 17 - - - - 5 Mostly clear Showers 22.8 1012.0 0.8
03/11:00am ESE 10 17 - - - - 3 Mostly clear - 22.9 1011.9 0.2
03/10:50am E 8 15 - - - - 3 Mostly clear Showers 23.0 1012.1 0.0
03/10:30am E 10 16 - - - - 10 Mostly clear Showers 24.9 1012.0 0.0
03/10:00am E 7 11 - - - - 10 Mostly clear - 24.3 1012.2 0.0
03/09:30am SE 7 10 - - - - 10 Mostly clear Showers 24.8 1012.2 0.0
03/09:00am SE 7 10 - - - - 20 Cloudy Distant precip. 24.6 1011.9 5.0
03/08:30am SE 6 9 - - - - 10 Mostly clear - 24.2 1011.6 5.0
03/08:00am ESE 8 13 - - - - 10 Mostly clear - 24.6 1011.3 5.0
03/07:30am ESE 7 13 - - - - 10 Partly cloudy - 23.6 1011.2 5.0
03/07:00am ESE 8 15 - - - - 10 Mostly clear - 22.8 1011.2 5.0
03/06:46am ESE 8 11 - - - - 10 Mostly clear Showers 22.7 1011.1 5.0
03/06:30am SE 9 15 - - - - 10 Mostly clear Showers 22.6 1011.0 5.0
03/06:11am SE 8 12 - - - - 10 Mostly clear - 22.9 1010.8 5.0
03/06:00am SE 8 13 - - - - 20 Mostly cloudy Recent precip. 23.0 1010.7 5.0
03/05:30am SE 6 10 - - - - 10 Mostly clear Showers 22.3 1010.4 5.0
03/05:00am ESE 7 10 - - - - 10 Mostly clear - 22.4 1010.2 4.8
03/04:30am E 7 10 - - - - 10 Mostly clear Showers 22.7 1010.2 4.8
03/04:00am ESE 7 10 - - - - 10 Partly cloudy - 23.1 1009.8 4.8
03/03:30am ESE 8 14 - - - - 10 Mostly clear - 23.7 1009.4 4.8
03/03:00am ESE 7 12 - - - - 25 Cloudy Recent precip. 23.2 1009.6 4.8
03/02:30am ESE 7 11 - - - - 10 Mostly clear - 23.0 1009.7 4.8
03/02:00am SE 5 9 - - - - 10 Mostly clear - 23.2 1009.6 4.8
03/01:30am SE 6 8 - - - - 10 Mostly clear Showers 23.0 1009.8 4.6
03/01:00am NW 3 5 - - - - 10 Mostly clear - 22.3 1009.7 4.2
03/12:30am ESE 3 4 - - - - 10 Mostly clear Showers 22.2 1010.1 4.0
03/12:00am SE 4 6 - - - - 12 Cloudy Showers 22.1 1010.3 3.6
 
Date/Time
EST
Wind Sea
Height
m
Swell Vis
km
Cloud Weather Temp
°C
Press
MSL
hPa
Rain since
9am
mm
Dir  Spd
kts
Gust
kts
Height
m
Period
s
Dir
02/11:30pm E 2 6 - - - - 10 Mostly clear Showers 21.9 1010.5 3.4
02/11:00pm E 5 6 - - - - 8 Mostly clear - 22.2 1010.8 2.4
02/10:30pm E 6 13 - - - - 10 Mostly clear Showers 22.9 1010.7 1.6
02/10:00pm NNE 14 22 - - - - 10 Mostly clear - 22.4 1010.7 1.4
02/09:30pm S 8 14 - - - - 10 Mostly clear Showers 25.1 1010.2 1.4
02/09:00pm SSE 9 17 - - - - 18 Mostly cloudy Showers 25.5 1009.9 1.4
02/08:30pm SSE 8 13 - - - - 10 Mostly clear Showers 25.7 1009.6 1.4
02/08:00pm SE 4 12 - - - - 10 Mostly cloudy - 25.8 1009.4 1.4
02/07:30pm SSW 5 7 - - - - 10 Partly cloudy - 24.5 1008.6 1.4
02/07:00pm ESE 6 8 - - - - 10 Mostly clear - 24.2 1008.0 1.2
02/06:30pm NNE 6 7 - - - - 10 Mostly clear Showers 22.8 1007.9 1.2
02/06:00pm NW 9 15 - - - - 12 Mostly cloudy Thunderstorm 23.9 1008.7 0.4
02/05:30pm NE 11 15 - - - - 10 Mostly clear Thunder 27.1 1007.4 0.0
02/05:20pm NE 11 15 - - - - 10 Mostly clear Thunder 27.1 1006.8 0.0
02/05:00pm NE 13 16 - - - - 10 Mostly clear - 27.5 1006.8 0.0
02/04:30pm NNE 14 18 - - - - 10 Mostly clear - 28.1 1006.3 0.0
02/04:00pm NNE 13 16 - - - - 10 Mostly clear - 28.8 1006.1 0.0
02/03:30pm NNE 13 16 - - - - 10 Mostly clear - 29.1 1006.2 0.0
02/03:00pm NNE 14 17 - - - - 30 Partly cloudy Fine 28.6 1006.3 0.0
02/02:30pm NNE 13 16 - - - - 10 Mostly clear - 29.9 1006.8 0.0
02/02:00pm NE 13 16 - - - - 10 Mostly clear - 30.0 1006.8 0.0
02/01:30pm NE 13 16 - - - - 10 Mostly clear - 29.9 1007.2 0.0
02/01:00pm NE 12 16 - - - - 10 Mostly clear - 29.6 1007.6 0.0
02/12:30pm NE 12 15 - - - - 10 Mostly clear - 29.9 1008.0 0.0
02/12:00pm NE 12 15 - - - - 30 Partly cloudy Fine 29.5 1008.2 0.0
02/11:30am NE 11 15 - - - - 10 Mostly clear - 29.0 1008.5 0.0
02/11:00am NE 11 14 - - - - 10 Mostly clear - 29.5 1008.8 0.0
02/10:30am NNE 9 10 - - - - 10 Mostly clear - 29.2 1009.1 0.0
02/10:00am N 7 10 - - - - 10 Mostly clear - 28.3 1009.5 0.0
02/09:30am N 7 9 - - - - 10 Mostly clear - 28.3 1009.7 0.0
02/09:00am WNW 5 6 - - - - 30 Partly cloudy Fine 27.5 1009.7 0.0
02/08:30am WSW 4 6 - - - - 10 Mostly clear - 27.0 1009.5 0.0
02/08:00am SW 5 7 - - - - 10 - - 25.8 1009.4 0.0
02/07:30am SSW 6 7 - - - - 10 - - 24.4 1009.3 0.0
02/07:00am SSW 6 8 - - - - 10 - - 23.3 1009.1 0.0
02/06:30am SSW 6 8 - - - - 10 - - 22.6 1008.9 0.0
02/06:00am SSW 6 7 - - - - 30 Partly cloudy Fine 21.8 1008.6 0.0
02/05:30am SW 4 5 - - - - 10 Mostly clear - 22.0 1008.3 0.0
02/05:00am WSW 3 4 - - - - 10 Mostly clear - 22.4 1008.1 0.0
02/04:30am CALM 0 0 - - - - 10 Mostly clear Shallow fog 22.4 1008.0 0.0
02/04:00am SW 3 4 - - - - 10 Mostly clear - 22.8 1008.2 0.0
02/03:30am SW 4 4 - - - - 10 Mostly clear - 22.5 1008.3 0.0
02/03:00am WSW 4 5 - - - - 30 Mostly clear Fine 22.8 1008.5 0.0
02/02:30am W 4 5 - - - - 10 Mostly clear - 23.3 1008.6 0.0

Other formats

Comma delimited format used in spreadsheet applications
http://www.bom.gov.au/fwo/IDQ60701/IDQ60701.94578.axf

JavaScript Object Notation format (JSON) in row-major order
http://www.bom.gov.au/fwo/IDQ60701/IDQ60701.94578.json

Data quality

Most of these data are generated automatically and are frequently updated. Quality checks on data are not normally performed. It is possible for incorrect values to appear. Refer to information at About Latest Weather Observations and please check the disclaimer before using these data.